sensor_id;sensor_type;location;lat;lon;timestamp;P1;durP1;ratioP1;P2;durP2;ratioP2
76795;SDS011;65745;50.278;18.192;2023-02-28T00:00:41;30.10;;;14.00;;
76795;SDS011;65745;50.278;18.192;2023-02-28T00:03:18;33.60;;;14.00;;
76795;SDS011;65745;50.278;18.192;2023-02-28T00:05:51;30.70;;;13.40;;
76795;SDS011;65745;50.278;18.192;2023-02-28T00:08:23;36.20;;;16.50;;
76795;SDS011;65745;50.278;18.192;2023-02-28T00:10:56;33.80;;;15.70;;
76795;SDS011;65745;50.278;18.192;2023-02-28T00:13:31;26.20;;;13.00;;
76795;SDS011;65745;50.278;18.192;2023-02-28T00:16:05;24.50;;;12.30;;
76795;SDS011;65745;50.278;18.192;2023-02-28T00:18:39;26.80;;;12.60;;
76795;SDS011;65745;50.278;18.192;2023-02-28T00:21:12;18.90;;;8.50;;
76795;SDS011;65745;50.278;18.192;2023-02-28T00:23:45;20.00;;;11.80;;
76795;SDS011;65745;50.278;18.192;2023-02-28T00:26:17;17.50;;;10.20;;
76795;SDS011;65745;50.278;18.192;2023-02-28T00:28:52;17.30;;;9.40;;
76795;SDS011;65745;50.278;18.192;2023-02-28T00:31:25;24.60;;;10.50;;
76795;SDS011;65745;50.278;18.192;2023-02-28T00:33:57;31.30;;;13.90;;
76795;SDS011;65745;50.278;18.192;2023-02-28T00:36:30;33.10;;;15.70;;
76795;SDS011;65745;50.278;18.192;2023-02-28T00:39:06;32.90;;;15.10;;
76795;SDS011;65745;50.278;18.192;2023-02-28T00:41:38;23.60;;;12.50;;
76795;SDS011;65745;50.278;18.192;2023-02-28T00:44:10;24.40;;;12.30;;
76795;SDS011;65745;50.278;18.192;2023-02-28T00:46:43;21.70;;;12.10;;
76795;SDS011;65745;50.278;18.192;2023-02-28T00:49:15;15.00;;;9.80;;
76795;SDS011;65745;50.278;18.192;2023-02-28T00:51:48;15.40;;;9.20;;
76795;SDS011;65745;50.278;18.192;2023-02-28T00:54:21;18.60;;;10.00;;
76795;SDS011;65745;50.278;18.192;2023-02-28T00:56:54;19.10;;;9.10;;
76795;SDS011;65745;50.278;18.192;2023-02-28T00:59:26;22.60;;;12.50;;
76795;SDS011;65745;50.278;18.192;2023-02-28T01:01:59;18.90;;;11.10;;
76795;SDS011;65745;50.278;18.192;2023-02-28T01:04:31;16.40;;;9.10;;
76795;SDS011;65745;50.278;18.192;2023-02-28T01:07:04;13.90;;;8.30;;
76795;SDS011;65745;50.278;18.192;2023-02-28T01:09:37;11.70;;;7.10;;
76795;SDS011;65745;50.278;18.192;2023-02-28T01:12:09;12.80;;;8.20;;
76795;SDS011;65745;50.278;18.192;2023-02-28T01:14:41;12.80;;;7.70;;
76795;SDS011;65745;50.278;18.192;2023-02-28T01:17:14;10.40;;;6.90;;
76795;SDS011;65745;50.278;18.192;2023-02-28T01:19:46;13.00;;;7.80;;
76795;SDS011;65745;50.278;18.192;2023-02-28T01:22:19;10.40;;;7.00;;
76795;SDS011;65745;50.278;18.192;2023-02-28T01:24:51;12.20;;;8.50;;
76795;SDS011;65745;50.278;18.192;2023-02-28T01:27:24;21.00;;;11.40;;
76795;SDS011;65745;50.278;18.192;2023-02-28T01:29:57;26.90;;;13.20;;
76795;SDS011;65745;50.278;18.192;2023-02-28T01:32:30;23.20;;;12.20;;
76795;SDS011;65745;50.278;18.192;2023-02-28T01:35:02;18.40;;;10.60;;
76795;SDS011;65745;50.278;18.192;2023-02-28T01:37:35;18.50;;;9.80;;
76795;SDS011;65745;50.278;18.192;2023-02-28T01:40:08;17.80;;;9.40;;
76795;SDS011;65745;50.278;18.192;2023-02-28T01:42:42;14.80;;;8.20;;
76795;SDS011;65745;50.278;18.192;2023-02-28T01:45:20;22.00;;;11.10;;
76795;SDS011;65745;50.278;18.192;2023-02-28T01:47:55;23.20;;;11.00;;
76795;SDS011;65745;50.278;18.192;2023-02-28T01:50:32;21.40;;;10.60;;
76795;SDS011;65745;50.278;18.192;2023-02-28T01:53:10;17.80;;;10.80;;
76795;SDS011;65745;50.278;18.192;2023-02-28T01:55:47;14.50;;;8.30;;
76795;SDS011;65745;50.278;18.192;2023-02-28T02:00:53;14.30;;;8.20;;
76795;SDS011;65745;50.278;18.192;2023-02-28T02:03:28;14.30;;;8.70;;
76795;SDS011;65745;50.278;18.192;2023-02-28T02:06:01;13.60;;;8.30;;
76795;SDS011;65745;50.278;18.192;2023-02-28T02:08:34;13.10;;;7.40;;
76795;SDS011;65745;50.278;18.192;2023-02-28T02:11:08;13.00;;;9.10;;
76795;SDS011;65745;50.278;18.192;2023-02-28T02:13:54;17.40;;;9.10;;
76795;SDS011;65745;50.278;18.192;2023-02-28T02:16:42;18.10;;;8.80;;
76795;SDS011;65745;50.278;18.192;2023-02-28T02:22:52;11.90;;;7.10;;
76795;SDS011;65745;50.278;18.192;2023-02-28T02:25:38;11.10;;;6.40;;
76795;SDS011;65745;50.278;18.192;2023-02-28T02:28:22;18.00;;;10.50;;
76795;SDS011;65745;50.278;18.192;2023-02-28T02:31:20;20.50;;;10.20;;
76795;SDS011;65745;50.278;18.192;2023-02-28T02:34:28;19.90;;;10.80;;
76795;SDS011;65745;50.278;18.192;2023-02-28T02:37:15;17.10;;;10.50;;
76795;SDS011;65745;50.278;18.192;2023-02-28T02:40:03;12.20;;;8.10;;
76795;SDS011;65745;50.278;18.192;2023-02-28T02:42:42;17.10;;;9.50;;
76795;SDS011;65745;50.278;18.192;2023-02-28T02:45:22;14.10;;;8.30;;
76795;SDS011;65745;50.278;18.192;2023-02-28T02:48:06;16.20;;;9.70;;
76795;SDS011;65745;50.278;18.192;2023-02-28T02:50:43;15.80;;;9.50;;
76795;SDS011;65745;50.278;18.192;2023-02-28T02:53:21;18.10;;;9.90;;
76795;SDS011;65745;50.278;18.192;2023-02-28T02:55:57;13.60;;;8.70;;
76795;SDS011;65745;50.278;18.192;2023-02-28T02:58:33;15.00;;;9.20;;
76795;SDS011;65745;50.278;18.192;2023-02-28T03:01:12;13.50;;;10.00;;
76795;SDS011;65745;50.278;18.192;2023-02-28T03:03:58;22.50;;;11.40;;
76795;SDS011;65745;50.278;18.192;2023-02-28T03:06:35;18.70;;;10.80;;
76795;SDS011;65745;50.278;18.192;2023-02-28T03:09:08;18.40;;;11.40;;
76795;SDS011;65745;50.278;18.192;2023-02-28T03:11:40;23.90;;;11.20;;
76795;SDS011;65745;50.278;18.192;2023-02-28T03:14:17;17.50;;;10.70;;
76795;SDS011;65745;50.278;18.192;2023-02-28T03:16:59;19.20;;;10.60;;
76795;SDS011;65745;50.278;18.192;2023-02-28T03:19:50;18.00;;;10.80;;
76795;SDS011;65745;50.278;18.192;2023-02-28T03:25:22;17.00;;;9.70;;
76795;SDS011;65745;50.278;18.192;2023-02-28T03:28:10;14.80;;;9.40;;
76795;SDS011;65745;50.278;18.192;2023-02-28T03:30:47;12.50;;;8.60;;
76795;SDS011;65745;50.278;18.192;2023-02-28T03:33:23;14.70;;;9.20;;
76795;SDS011;65745;50.278;18.192;2023-02-28T03:36:01;13.70;;;9.00;;
76795;SDS011;65745;50.278;18.192;2023-02-28T03:38:40;15.80;;;9.60;;
76795;SDS011;65745;50.278;18.192;2023-02-28T03:41:16;12.40;;;9.10;;
76795;SDS011;65745;50.278;18.192;2023-02-28T03:43:53;11.60;;;8.00;;
76795;SDS011;65745;50.278;18.192;2023-02-28T03:46:28;13.90;;;8.30;;
76795;SDS011;65745;50.278;18.192;2023-02-28T03:49:06;11.40;;;9.40;;
76795;SDS011;65745;50.278;18.192;2023-02-28T03:51:45;11.20;;;8.40;;
76795;SDS011;65745;50.278;18.192;2023-02-28T03:54:21;12.50;;;9.60;;
76795;SDS011;65745;50.278;18.192;2023-02-28T03:56:59;21.10;;;12.00;;
76795;SDS011;65745;50.278;18.192;2023-02-28T03:59:39;46.10;;;20.50;;
76795;SDS011;65745;50.278;18.192;2023-02-28T04:02:16;64.70;;;25.20;;
76795;SDS011;65745;50.278;18.192;2023-02-28T04:04:48;51.10;;;22.70;;
76795;SDS011;65745;50.278;18.192;2023-02-28T04:07:21;53.30;;;22.40;;
76795;SDS011;65745;50.278;18.192;2023-02-28T04:09:53;46.70;;;21.00;;
76795;SDS011;65745;50.278;18.192;2023-02-28T04:12:25;38.40;;;18.70;;
76795;SDS011;65745;50.278;18.192;2023-02-28T04:14:57;31.90;;;16.30;;
76795;SDS011;65745;50.278;18.192;2023-02-28T04:17:30;27.00;;;13.60;;
76795;SDS011;65745;50.278;18.192;2023-02-28T04:20:03;27.20;;;15.20;;
76795;SDS011;65745;50.278;18.192;2023-02-28T04:25:09;24.00;;;13.00;;
76795;SDS011;65745;50.278;18.192;2023-02-28T04:27:41;20.90;;;11.00;;
76795;SDS011;65745;50.278;18.192;2023-02-28T04:30:14;18.50;;;10.60;;
76795;SDS011;65745;50.278;18.192;2023-02-28T04:32:46;26.10;;;13.90;;
76795;SDS011;65745;50.278;18.192;2023-02-28T04:35:18;32.00;;;16.10;;
76795;SDS011;65745;50.278;18.192;2023-02-28T04:37:51;34.60;;;15.90;;
76795;SDS011;65745;50.278;18.192;2023-02-28T04:40:23;24.80;;;13.10;;
76795;SDS011;65745;50.278;18.192;2023-02-28T04:42:55;20.80;;;10.50;;
76795;SDS011;65745;50.278;18.192;2023-02-28T04:45:27;36.60;;;15.60;;
76795;SDS011;65745;50.278;18.192;2023-02-28T04:48:01;25.30;;;12.10;;
76795;SDS011;65745;50.278;18.192;2023-02-28T04:50:34;18.90;;;9.80;;
76795;SDS011;65745;50.278;18.192;2023-02-28T04:53:06;22.50;;;10.70;;
76795;SDS011;65745;50.278;18.192;2023-02-28T04:55:38;24.40;;;11.10;;
76795;SDS011;65745;50.278;18.192;2023-02-28T04:58:11;21.90;;;10.20;;
76795;SDS011;65745;50.278;18.192;2023-02-28T05:00:43;21.30;;;10.70;;
76795;SDS011;65745;50.278;18.192;2023-02-28T05:03:15;23.80;;;12.70;;
76795;SDS011;65745;50.278;18.192;2023-02-28T05:05:47;43.60;;;18.70;;
76795;SDS011;65745;50.278;18.192;2023-02-28T05:08:20;38.30;;;17.30;;
76795;SDS011;65745;50.278;18.192;2023-02-28T05:10:52;43.70;;;17.90;;
76795;SDS011;65745;50.278;18.192;2023-02-28T05:13:24;37.30;;;14.90;;
76795;SDS011;65745;50.278;18.192;2023-02-28T05:15:57;25.60;;;11.70;;
76795;SDS011;65745;50.278;18.192;2023-02-28T05:18:29;36.90;;;15.40;;
76795;SDS011;65745;50.278;18.192;2023-02-28T05:21:01;25.50;;;11.30;;
76795;SDS011;65745;50.278;18.192;2023-02-28T05:23:34;26.60;;;13.50;;
76795;SDS011;65745;50.278;18.192;2023-02-28T05:26:06;25.30;;;12.30;;
76795;SDS011;65745;50.278;18.192;2023-02-28T05:28:38;25.80;;;11.00;;
76795;SDS011;65745;50.278;18.192;2023-02-28T05:31:11;24.30;;;13.10;;
76795;SDS011;65745;50.278;18.192;2023-02-28T05:33:44;33.10;;;12.30;;
76795;SDS011;65745;50.278;18.192;2023-02-28T05:36:17;29.10;;;11.70;;
76795;SDS011;65745;50.278;18.192;2023-02-28T05:38:49;18.10;;;9.30;;
76795;SDS011;65745;50.278;18.192;2023-02-28T05:41:22;19.00;;;9.90;;
76795;SDS011;65745;50.278;18.192;2023-02-28T05:43:56;24.90;;;11.30;;
76795;SDS011;65745;50.278;18.192;2023-02-28T05:46:30;20.70;;;9.80;;
76795;SDS011;65745;50.278;18.192;2023-02-28T05:49:03;15.90;;;9.80;;
76795;SDS011;65745;50.278;18.192;2023-02-28T05:51:36;19.10;;;10.90;;
76795;SDS011;65745;50.278;18.192;2023-02-28T05:54:09;24.40;;;13.70;;
76795;SDS011;65745;50.278;18.192;2023-02-28T05:56:42;36.70;;;16.90;;
76795;SDS011;65745;50.278;18.192;2023-02-28T05:59:14;40.20;;;19.70;;
76795;SDS011;65745;50.278;18.192;2023-02-28T06:01:47;35.70;;;17.70;;
76795;SDS011;65745;50.278;18.192;2023-02-28T06:04:19;47.60;;;24.10;;
76795;SDS011;65745;50.278;18.192;2023-02-28T06:07:00;76.70;;;31.70;;
76795;SDS011;65745;50.278;18.192;2023-02-28T06:09:34;62.30;;;30.90;;
76795;SDS011;65745;50.278;18.192;2023-02-28T06:12:07;65.20;;;28.60;;
76795;SDS011;65745;50.278;18.192;2023-02-28T06:14:40;63.10;;;28.10;;
76795;SDS011;65745;50.278;18.192;2023-02-28T06:17:13;44.80;;;22.30;;
76795;SDS011;65745;50.278;18.192;2023-02-28T06:19:46;28.00;;;15.60;;
76795;SDS011;65745;50.278;18.192;2023-02-28T06:22:18;36.00;;;18.30;;
76795;SDS011;65745;50.278;18.192;2023-02-28T06:24:50;29.30;;;15.70;;
76795;SDS011;65745;50.278;18.192;2023-02-28T06:27:25;28.40;;;15.30;;
76795;SDS011;65745;50.278;18.192;2023-02-28T06:29:57;28.00;;;13.60;;
76795;SDS011;65745;50.278;18.192;2023-02-28T06:32:29;19.40;;;10.00;;
76795;SDS011;65745;50.278;18.192;2023-02-28T06:35:02;18.40;;;9.80;;
76795;SDS011;65745;50.278;18.192;2023-02-28T06:37:35;23.30;;;10.00;;
76795;SDS011;65745;50.278;18.192;2023-02-28T06:40:10;18.30;;;10.60;;
76795;SDS011;65745;50.278;18.192;2023-02-28T06:42:44;17.80;;;9.20;;
76795;SDS011;65745;50.278;18.192;2023-02-28T06:45:16;29.90;;;14.50;;
76795;SDS011;65745;50.278;18.192;2023-02-28T06:47:50;30.50;;;16.10;;
76795;SDS011;65745;50.278;18.192;2023-02-28T06:53:19;20.50;;;9.80;;
76795;SDS011;65745;50.278;18.192;2023-02-28T06:55:51;15.90;;;8.40;;
76795;SDS011;65745;50.278;18.192;2023-02-28T06:58:23;19.90;;;8.50;;
76795;SDS011;65745;50.278;18.192;2023-02-28T07:00:55;25.80;;;12.50;;
76795;SDS011;65745;50.278;18.192;2023-02-28T07:03:28;21.20;;;10.30;;
76795;SDS011;65745;50.278;18.192;2023-02-28T07:06:02;20.70;;;10.80;;
76795;SDS011;65745;50.278;18.192;2023-02-28T07:08:35;20.00;;;10.30;;
76795;SDS011;65745;50.278;18.192;2023-02-28T07:11:12;19.40;;;9.70;;
76795;SDS011;65745;50.278;18.192;2023-02-28T07:13:52;22.90;;;11.20;;
76795;SDS011;65745;50.278;18.192;2023-02-28T07:16:58;29.80;;;11.90;;
76795;SDS011;65745;50.278;18.192;2023-02-28T07:19:41;36.50;;;14.60;;
76795;SDS011;65745;50.278;18.192;2023-02-28T07:22:23;38.90;;;16.20;;
76795;SDS011;65745;50.278;18.192;2023-02-28T07:25:06;35.40;;;18.00;;
76795;SDS011;65745;50.278;18.192;2023-02-28T07:27:48;32.70;;;14.50;;
76795;SDS011;65745;50.278;18.192;2023-02-28T07:30:21;32.90;;;13.90;;
76795;SDS011;65745;50.278;18.192;2023-02-28T07:32:55;38.90;;;18.00;;
76795;SDS011;65745;50.278;18.192;2023-02-28T07:35:32;18.60;;;10.70;;
76795;SDS011;65745;50.278;18.192;2023-02-28T07:38:04;25.10;;;13.10;;
76795;SDS011;65745;50.278;18.192;2023-02-28T07:40:39;15.90;;;9.50;;
76795;SDS011;65745;50.278;18.192;2023-02-28T07:43:11;10.50;;;7.40;;
76795;SDS011;65745;50.278;18.192;2023-02-28T07:45:44;11.30;;;7.00;;
76795;SDS011;65745;50.278;18.192;2023-02-28T07:48:16;12.20;;;8.30;;
76795;SDS011;65745;50.278;18.192;2023-02-28T07:50:55;11.40;;;7.70;;
76795;SDS011;65745;50.278;18.192;2023-02-28T07:53:28;9.70;;;8.00;;
76795;SDS011;65745;50.278;18.192;2023-02-28T07:56:01;9.70;;;8.30;;
76795;SDS011;65745;50.278;18.192;2023-02-28T07:58:34;11.60;;;7.40;;
76795;SDS011;65745;50.278;18.192;2023-02-28T08:01:07;12.30;;;9.20;;
76795;SDS011;65745;50.278;18.192;2023-02-28T08:03:41;9.70;;;8.00;;
76795;SDS011;65745;50.278;18.192;2023-02-28T08:06:17;12.70;;;8.10;;
76795;SDS011;65745;50.278;18.192;2023-02-28T08:08:50;10.90;;;7.90;;
76795;SDS011;65745;50.278;18.192;2023-02-28T08:11:26;11.40;;;8.80;;
76795;SDS011;65745;50.278;18.192;2023-02-28T08:13:58;10.60;;;7.20;;
76795;SDS011;65745;50.278;18.192;2023-02-28T08:16:31;8.90;;;7.00;;
76795;SDS011;65745;50.278;18.192;2023-02-28T08:19:03;11.80;;;8.00;;
76795;SDS011;65745;50.278;18.192;2023-02-28T08:21:35;9.40;;;6.90;;
76795;SDS011;65745;50.278;18.192;2023-02-28T08:24:09;10.00;;;7.70;;
76795;SDS011;65745;50.278;18.192;2023-02-28T08:26:44;12.60;;;7.40;;
76795;SDS011;65745;50.278;18.192;2023-02-28T08:29:23;12.20;;;8.80;;
76795;SDS011;65745;50.278;18.192;2023-02-28T08:31:56;9.40;;;6.90;;
76795;SDS011;65745;50.278;18.192;2023-02-28T08:34:29;9.70;;;7.00;;
76795;SDS011;65745;50.278;18.192;2023-02-28T08:37:01;11.20;;;8.10;;
76795;SDS011;65745;50.278;18.192;2023-02-28T08:39:35;11.50;;;7.90;;
76795;SDS011;65745;50.278;18.192;2023-02-28T08:42:07;12.10;;;7.60;;
76795;SDS011;65745;50.278;18.192;2023-02-28T08:44:40;10.00;;;7.10;;
76795;SDS011;65745;50.278;18.192;2023-02-28T08:47:12;14.00;;;8.80;;
76795;SDS011;65745;50.278;18.192;2023-02-28T08:49:44;15.60;;;10.30;;
76795;SDS011;65745;50.278;18.192;2023-02-28T08:52:17;16.50;;;9.10;;
76795;SDS011;65745;50.278;18.192;2023-02-28T08:54:49;13.70;;;8.90;;
76795;SDS011;65745;50.278;18.192;2023-02-28T08:57:21;11.60;;;7.50;;
76795;SDS011;65745;50.278;18.192;2023-02-28T08:59:58;12.60;;;8.10;;
76795;SDS011;65745;50.278;18.192;2023-02-28T09:02:33;10.00;;;7.00;;
76795;SDS011;65745;50.278;18.192;2023-02-28T09:05:07;31.60;;;15.50;;
76795;SDS011;65745;50.278;18.192;2023-02-28T09:07:43;15.00;;;11.00;;
76795;SDS011;65745;50.278;18.192;2023-02-28T09:10:16;13.00;;;8.90;;
76795;SDS011;65745;50.278;18.192;2023-02-28T09:12:48;16.90;;;11.50;;
76795;SDS011;65745;50.278;18.192;2023-02-28T09:15:22;21.50;;;14.50;;
76795;SDS011;65745;50.278;18.192;2023-02-28T09:17:54;28.20;;;17.50;;
76795;SDS011;65745;50.278;18.192;2023-02-28T09:20:26;17.20;;;13.10;;
76795;SDS011;65745;50.278;18.192;2023-02-28T09:22:59;13.50;;;10.70;;
76795;SDS011;65745;50.278;18.192;2023-02-28T09:25:31;12.60;;;9.70;;
76795;SDS011;65745;50.278;18.192;2023-02-28T09:28:04;11.20;;;7.90;;
76795;SDS011;65745;50.278;18.192;2023-02-28T09:30:37;14.60;;;10.50;;
76795;SDS011;65745;50.278;18.192;2023-02-28T09:33:09;21.00;;;12.70;;
76795;SDS011;65745;50.278;18.192;2023-02-28T09:35:42;14.70;;;9.10;;
76795;SDS011;65745;50.278;18.192;2023-02-28T09:38:14;17.10;;;10.10;;
76795;SDS011;65745;50.278;18.192;2023-02-28T09:40:49;17.60;;;11.70;;
76795;SDS011;65745;50.278;18.192;2023-02-28T09:43:25;13.80;;;9.10;;
76795;SDS011;65745;50.278;18.192;2023-02-28T09:46:05;12.80;;;8.60;;
76795;SDS011;65745;50.278;18.192;2023-02-28T09:48:46;16.70;;;10.80;;
76795;SDS011;65745;50.278;18.192;2023-02-28T09:51:26;18.30;;;12.00;;
76795;SDS011;65745;50.278;18.192;2023-02-28T09:54:08;11.60;;;8.90;;
76795;SDS011;65745;50.278;18.192;2023-02-28T09:56:49;14.20;;;10.00;;
76795;SDS011;65745;50.278;18.192;2023-02-28T10:03:44;13.90;;;9.50;;
76795;SDS011;65745;50.278;18.192;2023-02-28T10:06:28;17.50;;;10.80;;
76795;SDS011;65745;50.278;18.192;2023-02-28T10:09:07;19.80;;;11.20;;
76795;SDS011;65745;50.278;18.192;2023-02-28T10:11:46;18.10;;;9.50;;
76795;SDS011;65745;50.278;18.192;2023-02-28T10:14:24;17.10;;;8.80;;
76795;SDS011;65745;50.278;18.192;2023-02-28T10:17:00;12.70;;;8.90;;
76795;SDS011;65745;50.278;18.192;2023-02-28T10:19:40;15.30;;;9.00;;
76795;SDS011;65745;50.278;18.192;2023-02-28T10:22:19;16.50;;;9.30;;
76795;SDS011;65745;50.278;18.192;2023-02-28T10:24:56;18.80;;;10.70;;
76795;SDS011;65745;50.278;18.192;2023-02-28T10:27:35;15.50;;;10.40;;
76795;SDS011;65745;50.278;18.192;2023-02-28T10:30:09;14.70;;;11.30;;
76795;SDS011;65745;50.278;18.192;2023-02-28T10:35:19;14.50;;;9.70;;
76795;SDS011;65745;50.278;18.192;2023-02-28T10:37:55;15.00;;;10.60;;
76795;SDS011;65745;50.278;18.192;2023-02-28T10:40:32;14.20;;;8.90;;
76795;SDS011;65745;50.278;18.192;2023-02-28T10:43:12;13.60;;;9.90;;
76795;SDS011;65745;50.278;18.192;2023-02-28T10:46:01;11.60;;;9.20;;
76795;SDS011;65745;50.278;18.192;2023-02-28T10:48:47;14.80;;;9.40;;
76795;SDS011;65745;50.278;18.192;2023-02-28T10:51:36;17.50;;;12.20;;
76795;SDS011;65745;50.278;18.192;2023-02-28T10:54:19;19.40;;;12.00;;
76795;SDS011;65745;50.278;18.192;2023-02-28T10:57:06;18.70;;;13.50;;
76795;SDS011;65745;50.278;18.192;2023-02-28T10:59:53;15.00;;;10.00;;
76795;SDS011;65745;50.278;18.192;2023-02-28T11:02:44;19.00;;;13.70;;
76795;SDS011;65745;50.278;18.192;2023-02-28T11:05:28;21.50;;;13.50;;
76795;SDS011;65745;50.278;18.192;2023-02-28T11:08:04;16.50;;;10.60;;
76795;SDS011;65745;50.278;18.192;2023-02-28T11:10:46;19.20;;;12.60;;
76795;SDS011;65745;50.278;18.192;2023-02-28T11:13:27;18.80;;;12.30;;
76795;SDS011;65745;50.278;18.192;2023-02-28T11:16:04;17.70;;;12.50;;
76795;SDS011;65745;50.278;18.192;2023-02-28T11:18:40;17.90;;;12.60;;
76795;SDS011;65745;50.278;18.192;2023-02-28T11:21:19;17.00;;;12.40;;
76795;SDS011;65745;50.278;18.192;2023-02-28T11:23:59;18.30;;;12.10;;
76795;SDS011;65745;50.278;18.192;2023-02-28T11:26:37;16.60;;;11.60;;
76795;SDS011;65745;50.278;18.192;2023-02-28T11:29:12;18.00;;;13.80;;
76795;SDS011;65745;50.278;18.192;2023-02-28T11:32:04;17.90;;;12.80;;
76795;SDS011;65745;50.278;18.192;2023-02-28T11:34:43;19.60;;;13.40;;
76795;SDS011;65745;50.278;18.192;2023-02-28T11:37:16;15.30;;;10.90;;
76795;SDS011;65745;50.278;18.192;2023-02-28T11:39:50;18.50;;;12.30;;
76795;SDS011;65745;50.278;18.192;2023-02-28T11:42:30;23.30;;;16.60;;
76795;SDS011;65745;50.278;18.192;2023-02-28T11:45:24;20.70;;;13.10;;
76795;SDS011;65745;50.278;18.192;2023-02-28T11:48:13;18.70;;;12.20;;
76795;SDS011;65745;50.278;18.192;2023-02-28T11:50:54;20.00;;;12.50;;
76795;SDS011;65745;50.278;18.192;2023-02-28T11:53:43;18.60;;;11.70;;
76795;SDS011;65745;50.278;18.192;2023-02-28T11:56:32;15.50;;;11.80;;
76795;SDS011;65745;50.278;18.192;2023-02-28T11:59:18;16.20;;;11.50;;
76795;SDS011;65745;50.278;18.192;2023-02-28T12:07:44;15.00;;;11.90;;
76795;SDS011;65745;50.278;18.192;2023-02-28T12:10:26;17.10;;;12.30;;
76795;SDS011;65745;50.278;18.192;2023-02-28T12:13:11;14.20;;;11.00;;
76795;SDS011;65745;50.278;18.192;2023-02-28T12:15:58;15.70;;;11.20;;
76795;SDS011;65745;50.278;18.192;2023-02-28T12:18:53;19.60;;;12.30;;
76795;SDS011;65745;50.278;18.192;2023-02-28T12:21:43;13.90;;;9.90;;
76795;SDS011;65745;50.278;18.192;2023-02-28T12:24:42;15.90;;;11.40;;
76795;SDS011;65745;50.278;18.192;2023-02-28T12:27:24;16.20;;;10.50;;
76795;SDS011;65745;50.278;18.192;2023-02-28T12:30:03;14.40;;;11.30;;
76795;SDS011;65745;50.278;18.192;2023-02-28T12:32:48;18.20;;;12.30;;
76795;SDS011;65745;50.278;18.192;2023-02-28T12:35:26;15.00;;;12.00;;
76795;SDS011;65745;50.278;18.192;2023-02-28T12:38:05;32.20;;;16.10;;
76795;SDS011;65745;50.278;18.192;2023-02-28T12:40:47;17.40;;;11.50;;
76795;SDS011;65745;50.278;18.192;2023-02-28T12:43:25;17.10;;;12.00;;
76795;SDS011;65745;50.278;18.192;2023-02-28T12:46:05;19.60;;;14.10;;
76795;SDS011;65745;50.278;18.192;2023-02-28T12:48:43;13.80;;;11.00;;
76795;SDS011;65745;50.278;18.192;2023-02-28T12:51:18;16.10;;;13.10;;
76795;SDS011;65745;50.278;18.192;2023-02-28T12:53:54;21.70;;;13.70;;
76795;SDS011;65745;50.278;18.192;2023-02-28T12:56:38;17.70;;;12.10;;
76795;SDS011;65745;50.278;18.192;2023-02-28T12:59:22;15.20;;;11.40;;
76795;SDS011;65745;50.278;18.192;2023-02-28T13:05:00;16.30;;;12.50;;
76795;SDS011;65745;50.278;18.192;2023-02-28T13:07:59;16.70;;;11.70;;
76795;SDS011;65745;50.278;18.192;2023-02-28T13:10:51;14.10;;;11.60;;
76795;SDS011;65745;50.278;18.192;2023-02-28T13:13:29;14.00;;;11.00;;
76795;SDS011;65745;50.278;18.192;2023-02-28T13:16:16;15.80;;;12.10;;
76795;SDS011;65745;50.278;18.192;2023-02-28T13:18:49;15.00;;;11.90;;
76795;SDS011;65745;50.278;18.192;2023-02-28T13:21:30;14.20;;;10.10;;
76795;SDS011;65745;50.278;18.192;2023-02-28T13:24:39;13.70;;;11.00;;
76795;SDS011;65745;50.278;18.192;2023-02-28T13:33:24;14.30;;;11.00;;
76795;SDS011;65745;50.278;18.192;2023-02-28T13:36:10;15.00;;;12.10;;
76795;SDS011;65745;50.278;18.192;2023-02-28T13:39:01;14.50;;;12.00;;
76795;SDS011;65745;50.278;18.192;2023-02-28T13:41:53;15.10;;;12.10;;
76795;SDS011;65745;50.278;18.192;2023-02-28T13:44:28;14.80;;;12.20;;
76795;SDS011;65745;50.278;18.192;2023-02-28T13:47:27;15.80;;;13.60;;
76795;SDS011;65745;50.278;18.192;2023-02-28T13:50:22;15.80;;;14.20;;
76795;SDS011;65745;50.278;18.192;2023-02-28T13:56:09;13.70;;;12.30;;
76795;SDS011;65745;50.278;18.192;2023-02-28T13:58:57;15.00;;;13.20;;
76795;SDS011;65745;50.278;18.192;2023-02-28T14:01:40;14.50;;;13.00;;
76795;SDS011;65745;50.278;18.192;2023-02-28T14:04:30;15.40;;;13.60;;
76795;SDS011;65745;50.278;18.192;2023-02-28T14:07:31;16.50;;;14.70;;
76795;SDS011;65745;50.278;18.192;2023-02-28T14:10:15;14.70;;;13.20;;
76795;SDS011;65745;50.278;18.192;2023-02-28T14:12:58;20.10;;;17.00;;
76795;SDS011;65745;50.278;18.192;2023-02-28T14:15:44;15.40;;;12.70;;
76795;SDS011;65745;50.278;18.192;2023-02-28T14:18:27;43.30;;;32.60;;
76795;SDS011;65745;50.278;18.192;2023-02-28T14:21:08;132.70;;;77.10;;
76795;SDS011;65745;50.278;18.192;2023-02-28T14:27:24;138.90;;;72.00;;
76795;SDS011;65745;50.278;18.192;2023-02-28T14:33:31;281.30;;;131.70;;
76795;SDS011;65745;50.278;18.192;2023-02-28T14:36:14;53.10;;;37.30;;
76795;SDS011;65745;50.278;18.192;2023-02-28T14:41:30;18.60;;;14.70;;
76795;SDS011;65745;50.278;18.192;2023-02-28T14:44:14;17.50;;;14.00;;
76795;SDS011;65745;50.278;18.192;2023-02-28T14:46:50;227.90;;;114.20;;
76795;SDS011;65745;50.278;18.192;2023-02-28T14:49:26;146.10;;;78.50;;
76795;SDS011;65745;50.278;18.192;2023-02-28T14:52:05;344.90;;;185.00;;
76795;SDS011;65745;50.278;18.192;2023-02-28T14:54:43;316.80;;;161.60;;
76795;SDS011;65745;50.278;18.192;2023-02-28T14:57:23;50.50;;;33.40;;
76795;SDS011;65745;50.278;18.192;2023-02-28T15:00:00;92.10;;;52.90;;
76795;SDS011;65745;50.278;18.192;2023-02-28T15:02:43;65.50;;;38.70;;
76795;SDS011;65745;50.278;18.192;2023-02-28T15:05:27;375.50;;;203.00;;
76795;SDS011;65745;50.278;18.192;2023-02-28T15:08:04;144.70;;;80.50;;
76795;SDS011;65745;50.278;18.192;2023-02-28T15:10:41;198.80;;;106.80;;
76795;SDS011;65745;50.278;18.192;2023-02-28T15:13:16;130.50;;;77.10;;
76795;SDS011;65745;50.278;18.192;2023-02-28T15:15:51;64.00;;;41.30;;
76795;SDS011;65745;50.278;18.192;2023-02-28T15:18:36;81.40;;;52.50;;
76795;SDS011;65745;50.278;18.192;2023-02-28T15:21:17;134.70;;;85.80;;
76795;SDS011;65745;50.278;18.192;2023-02-28T15:23:54;115.70;;;76.00;;
76795;SDS011;65745;50.278;18.192;2023-02-28T15:26:31;77.00;;;49.90;;
76795;SDS011;65745;50.278;18.192;2023-02-28T15:29:10;119.60;;;74.80;;
76795;SDS011;65745;50.278;18.192;2023-02-28T15:31:48;134.70;;;92.30;;
76795;SDS011;65745;50.278;18.192;2023-02-28T15:34:33;63.10;;;43.60;;
76795;SDS011;65745;50.278;18.192;2023-02-28T15:37:26;51.10;;;34.60;;
76795;SDS011;65745;50.278;18.192;2023-02-28T15:40:15;41.30;;;28.10;;
76795;SDS011;65745;50.278;18.192;2023-02-28T15:43:02;87.60;;;57.70;;
76795;SDS011;65745;50.278;18.192;2023-02-28T15:45:40;196.40;;;143.90;;
76795;SDS011;65745;50.278;18.192;2023-02-28T15:48:29;73.00;;;45.30;;
76795;SDS011;65745;50.278;18.192;2023-02-28T15:51:33;34.50;;;25.30;;
76795;SDS011;65745;50.278;18.192;2023-02-28T15:54:10;52.00;;;35.20;;
76795;SDS011;65745;50.278;18.192;2023-02-28T15:56:49;49.20;;;32.30;;
76795;SDS011;65745;50.278;18.192;2023-02-28T15:59:24;47.80;;;30.70;;